Time;durP1;ratioP1;P1;durP2;ratioP2;P2;SDS_P1;SDS_P2;PMS_P1;PMS_P2;Temp;Humidity;BMP_temperature;BMP_pressure;BME280_temperature;BME280_humidity;BME280_pressure;Samples;Min_cycle;Max_cycle;Signal;HPM_P1;HPM_P2
2022/03/21 04:33:33;;;;;;;17.95;1.98;;;22.20;66.90;;;;;;5045990;28;20053;-70
2022/03/21 04:36:00;;;;;;;20.23;2.35;;;22.10;65.00;;;;;;5014485;28;20414;-71
2022/03/21 04:38:28;;;;;;;26.67;3.00;;;22.10;65.90;;;;;;5023381;28;20396;-72
2022/03/21 04:40:55;;;;;;;9.32;2.35;;;22.20;68.20;;;;;;5011047;28;20439;-72
2022/03/21 04:43:22;;;;;;;7.63;1.90;;;22.30;68.30;;;;;;5015170;28;20092;-71
2022/03/21 04:45:50;;;;;;;24.63;2.58;;;22.20;68.50;;;;;;5032267;28;20356;-69
2022/03/21 04:48:17;;;;;;;5.70;1.35;;;22.20;67.40;;;;;;5015214;28;20038;-70
2022/03/21 04:50:45;;;;;;;8.75;1.85;;;22.20;66.30;;;;;;4998841;28;20090;-70
2022/03/21 04:53:12;;;;;;;27.30;3.35;;;22.30;68.60;;;;;;5028455;28;20534;-70
2022/03/21 04:55:40;;;;;;;9.35;2.53;;;22.20;69.30;;;;;;5028373;28;20033;-69
2022/03/21 04:58:07;;;;;;;24.20;2.95;;;22.30;68.00;;;;;;5015019;28;20393;-69
2022/03/21 05:00:35;;;;;;;10.88;2.40;;;22.30;68.70;;;;;;5033019;28;20324;-72
2022/03/21 05:03:07;;;;;;;5.85;1.70;;;22.30;69.60;;;;;;5032234;28;20037;-72
2022/03/21 05:05:37;;;;;;;7.43;1.60;;;22.30;66.70;;;;;;5032312;28;20515;-72
2022/03/21 05:08:05;;;;;;;10.68;2.22;;;22.30;67.90;;;;;;5032787;28;20361;-71
2022/03/21 05:10:32;;;;;;;6.78;1.70;;;22.30;68.00;;;;;;5014740;28;20483;-73
2022/03/21 05:13:00;;;;;;;9.23;2.20;;;22.30;67.30;;;;;;5031487;28;20034;-73
2022/03/21 05:15:27;;;;;;;11.57;2.13;;;22.30;67.00;;;;;;5009822;28;20034;-73
2022/03/21 05:17:54;;;;;;;5.35;1.50;;;22.30;67.50;;;;;;5013668;28;20438;-73
2022/03/21 05:20:22;;;;;;;7.03;1.75;;;22.30;67.90;;;;;;5032225;28;20460;-71
2022/03/21 05:31:07;;;;;;;6.57;1.83;;;22.20;67.80;;;;;;5017289;28;20049;-71
2022/03/21 05:36:25;;;;;;;6.82;1.58;;;22.30;65.40;;;;;;5032060;28;20415;-72
2022/03/21 05:38:52;;;;;;;4.22;1.40;;;22.30;64.80;;;;;;5031579;28;20405;-71
2022/03/21 05:41:20;;;;;;;6.65;1.60;;;22.30;68.40;;;;;;5014604;28;20108;-71
2022/03/21 05:43:47;;;;;;;7.60;1.75;;;22.30;69.10;;;;;;5013101;28;20057;-71
2022/03/21 05:46:15;;;;;;;10.00;1.70;;;22.30;69.80;;;;;;5013241;28;20375;-71
2022/03/21 05:48:54;;;;;;;5.45;1.50;;;22.30;69.10;;;;;;5013740;28;20025;-72
2022/03/21 05:51:29;;;;;;;5.00;1.40;;;22.30;69.70;;;;;;5000203;28;20128;-72
2022/03/21 05:53:58;;;;;;;6.18;1.67;;;22.30;69.20;;;;;;5030729;28;20029;-76
2022/03/21 05:56:25;;;;;;;10.05;1.77;;;22.30;69.30;;;;;;5005185;28;20041;-76
2022/03/21 05:58:53;;;;;;;7.28;1.58;;;22.20;69.30;;;;;;4990068;28;20041;-76
2022/03/21 06:01:23;;;;;;;3.35;1.40;;;22.20;69.10;;;;;;5006284;28;20064;-74
2022/03/21 06:03:54;;;;;;;14.63;2.10;;;22.20;68.80;;;;;;4998365;28;20116;-71
2022/03/21 06:06:22;;;;;;;11.40;2.30;;;22.20;67.60;;;;;;5008615;28;20135;-70
2022/03/21 06:08:52;;;;;;;9.13;1.83;;;22.20;68.80;;;;;;5029842;28;20053;-71
2022/03/21 06:11:19;;;;;;;;;;;22.20;69.10;;;;;;4991273;28;20029;-70
2022/03/21 06:13:47;;;;;;;12.90;2.08;;;22.20;68.50;;;;;;5029843;28;19920;-70
2022/03/21 06:16:15;;;;;;;8.13;1.50;;;22.20;68.90;;;;;;5013608;28;20095;-71
2022/03/21 06:18:42;;;;;;;14.57;2.78;;;22.30;68.80;;;;;;5012647;28;20254;-71
2022/03/21 06:21:10;;;;;;;4.55;1.50;;;22.30;68.60;;;;;;5012745;28;20116;-71
2022/03/21 06:23:37;;;;;;;17.63;2.28;;;22.20;67.60;;;;;;4997134;28;20026;-71
2022/03/21 06:26:07;;;;;;;6.20;1.80;;;22.20;67.90;;;;;;4991134;28;20188;-70
2022/03/21 06:28:35;;;;;;;7.90;2.03;;;22.20;68.90;;;;;;5028664;28;20041;-71
2022/03/21 06:31:02;;;;;;;5.05;1.40;;;22.10;67.50;;;;;;5008157;28;20041;-71
2022/03/21 06:33:30;;;;;;;5.22;1.25;;;22.10;67.20;;;;;;5015236;28;20425;-73
2022/03/21 06:35:58;;;;;;;6.32;1.60;;;22.10;69.20;;;;;;5048646;28;20059;-71
2022/03/21 06:38:25;;;;;;;4.85;1.50;;;22.10;69.30;;;;;;5013033;28;20072;-70
2022/03/21 06:40:52;;;;;;;8.82;1.58;;;22.00;68.00;;;;;;5013231;28;20033;-71
2022/03/21 06:43:22;;;;;;;8.85;1.35;;;22.00;66.80;;;;;;5029948;28;20032;-71
2022/03/21 06:45:53;;;;;;;4.68;1.50;;;22.00;68.60;;;;;;5013052;28;20095;-71
2022/03/21 06:48:21;;;;;;;5.32;1.50;;;22.00;68.40;;;;;;5012133;28;20029;-70
2022/03/21 06:50:49;;;;;;;4.30;1.67;;;22.00;70.10;;;;;;4996953;28;20139;-70
2022/03/21 06:53:17;;;;;;;20.30;2.05;;;22.00;70.20;;;;;;5030858;28;20037;-71
2022/03/21 06:55:44;;;;;;;8.77;1.85;;;22.00;70.80;;;;;;5012762;28;20395;-73
2022/03/21 06:58:13;;;;;;;9.10;1.70;;;22.00;70.30;;;;;;5011434;28;20479;-72
2022/03/21 07:00:41;;;;;;;6.65;1.52;;;22.00;70.10;;;;;;4986893;28;20030;-71
2022/03/21 07:03:08;;;;;;;6.93;1.45;;;22.00;70.00;;;;;;4993679;28;20030;-71
2022/03/21 07:05:38;;;;;;;7.32;1.40;;;21.90;69.40;;;;;;4983407;28;20498;-72
2022/03/21 07:08:05;;;;;;;;;;;21.90;69.90;;;;;;5030706;28;20104;-71
2022/03/21 07:10:39;;;;;;;6.28;1.30;;;21.90;71.20;;;;;;5007995;28;20013;-71
2022/03/21 07:13:07;;;;;;;5.75;1.75;;;21.90;71.60;;;;;;5010211;28;20061;-71
2022/03/21 07:15:34;;;;;;;5.00;1.50;;;21.80;72.20;;;;;;5011081;28;20028;-71
2022/03/21 07:18:01;;;;;;;6.13;1.45;;;21.80;72.30;;;;;;5012216;28;20116;-72
2022/03/21 07:20:28;;;;;;;6.85;1.70;;;21.80;72.40;;;;;;5030189;28;20030;-73
2022/03/21 07:22:56;;;;;;;7.15;2.00;;;21.80;72.20;;;;;;5012707;28;20136;-72
2022/03/21 07:25:24;;;;;;;4.38;1.52;;;21.80;72.40;;;;;;4996535;28;20041;-70
2022/03/21 07:27:51;;;;;;;4.55;1.67;;;21.80;72.60;;;;;;5010110;28;20086;-72
2022/03/21 07:30:19;;;;;;;10.73;1.98;;;21.80;72.40;;;;;;5029492;28;20030;-73
2022/03/21 07:32:46;;;;;;;8.05;1.52;;;21.80;71.80;;;;;;5004708;28;20040;-72
2022/03/21 07:35:14;;;;;;;16.30;1.67;;;21.80;71.90;;;;;;5013006;28;20046;-72
2022/03/21 07:37:49;;;;;;;23.63;2.78;;;21.80;71.70;;;;;;4996834;28;20038;-72
2022/03/21 07:40:16;;;;;;;6.20;1.70;;;21.80;71.30;;;;;;5030626;28;20045;-72
2022/03/21 07:42:45;;;;;;;4.78;1.75;;;21.70;71.60;;;;;;4995665;28;20033;-72
2022/03/21 07:47:59;;;;;;;7.30;1.48;;;21.70;73.00;;;;;;5029533;28;20048;-72
2022/03/21 07:50:26;;;;;;;6.50;1.60;;;21.70;72.50;;;;;;4996550;28;20030;-72
2022/03/21 07:52:54;;;;;;;3.28;1.50;;;21.70;72.90;;;;;;5012470;28;20124;-72
2022/03/21 07:55:22;;;;;;;5.60;1.60;;;21.70;73.30;;;;;;5012849;28;20029;-72
2022/03/21 07:57:49;;;;;;;6.78;1.58;;;21.60;73.20;;;;;;5010370;28;20045;-72
2022/03/21 08:00:16;;;;;;;6.07;1.67;;;21.60;73.30;;;;;;5029593;28;20080;-72
2022/03/21 08:02:45;;;;;;;7.97;1.85;;;21.60;72.90;;;;;;5029967;28;20069;-71
2022/03/21 08:05:15;;;;;;;10.32;1.75;;;21.60;73.50;;;;;;4995734;28;20044;-73
2022/03/21 08:07:43;;;;;;;6.63;1.92;;;21.60;73.00;;;;;;5025163;28;20455;-72
2022/03/21 08:10:15;;;;;;;4.00;1.17;;;21.60;73.20;;;;;;5008434;28;20340;-72
2022/03/21 08:12:42;;;;;;;5.30;1.52;;;21.50;73.50;;;;;;5028666;28;20503;-72
2022/03/21 08:15:12;;;;;;;6.00;1.50;;;21.50;73.60;;;;;;5029942;28;20476;-72
2022/03/21 08:18:10;;;;;;;7.70;1.52;;;21.50;72.70;;;;;;5013239;28;20076;-72
2022/03/21 08:20:39;;;;;;;9.18;1.50;;;21.50;72.90;;;;;;5000560;28;20129;-71
2022/03/21 08:23:08;;;;;;;3.25;1.23;;;21.50;72.70;;;;;;5026882;28;20480;-71
2022/03/21 08:25:40;;;;;;;6.30;1.27;;;21.50;73.30;;;;;;4999529;28;20105;-71
2022/03/21 08:28:07;;;;;;;4.65;1.40;;;21.50;73.40;;;;;;5014680;28;20115;-71
2022/03/21 08:30:35;;;;;;;4.82;1.20;;;21.50;73.40;;;;;;4998849;28;20038;-71
2022/03/21 08:33:03;;;;;;;7.45;1.83;;;21.50;73.20;;;;;;5043491;28;20495;-71
2022/03/21 08:35:31;;;;;;;3.15;1.10;;;21.50;73.30;;;;;;5025664;28;20126;-71
2022/03/21 08:37:58;;;;;;;3.80;1.30;;;21.40;73.20;;;;;;5023246;28;20136;-70
2022/03/21 08:40:25;;;;;;;5.43;1.55;;;21.40;74.10;;;;;;4987665;28;20034;-71
2022/03/21 08:42:53;;;;;;;5.47;1.40;;;21.40;74.50;;;;;;5040599;28;20032;-69
2022/03/21 08:45:21;;;;;;;7.32;1.40;;;21.40;73.60;;;;;;5034287;28;20040;-71
2022/03/21 09:03:45;;;;;;;6.45;1.60;;;21.30;74.50;;;;;;5056912;28;20469;-77
2022/03/21 09:06:12;;;;;;;12.23;1.75;;;21.30;74.80;;;;;;5032249;28;20131;-81
2022/03/21 09:08:42;;;;;;;3.90;1.20;;;21.30;75.90;;;;;;5034364;28;20510;-73
2022/03/21 09:11:10;;;;;;;6.50;1.65;;;21.30;75.30;;;;;;5052028;28;20063;-77
2022/03/21 09:13:37;;;;;;;5.68;1.90;;;21.30;75.20;;;;;;5034349;28;20029;-77
2022/03/21 09:16:05;;;;;;;12.52;2.13;;;21.30;75.00;;;;;;5031974;28;20055;-72
2022/03/21 09:18:32;;;;;;;3.85;1.60;;;21.30;75.30;;;;;;5033493;28;20089;-73
2022/03/21 09:20:59;;;;;;;6.50;2.20;;;21.30;75.40;;;;;;5033929;28;20029;-72
2022/03/21 09:23:27;;;;;;;12.45;2.10;;;21.20;75.20;;;;;;5050997;28;20037;-74
2022/03/21 09:25:55;;;;;;;8.02;2.20;;;21.30;75.30;;;;;;5014283;28;20056;-74
2022/03/21 09:28:22;;;;;;;8.32;2.28;;;21.30;75.70;;;;;;5016798;28;20150;-76
2022/03/21 09:30:49;;;;;;;6.03;1.80;;;21.30;76.20;;;;;;5051319;28;20037;-76
2022/03/21 09:33:16;;;;;;;16.20;2.08;;;21.30;76.00;;;;;;5031480;28;20033;-74
2022/03/21 09:35:44;;;;;;;5.18;1.67;;;21.20;75.90;;;;;;5050032;28;20103;-74
2022/03/21 09:38:11;;;;;;;7.50;1.95;;;21.20;75.50;;;;;;5049710;28;20033;-73
2022/03/21 09:40:39;;;;;;;9.57;2.17;;;21.20;75.80;;;;;;5033255;28;20636;-72
2022/03/21 09:43:06;;;;;;;9.88;1.90;;;21.30;76.50;;;;;;5017224;28;20127;-73
2022/03/21 09:45:33;;;;;;;6.55;2.05;;;21.20;76.30;;;;;;5016727;28;20091;-73
2022/03/21 09:48:09;;;;;;;14.00;2.22;;;21.20;76.70;;;;;;5017642;28;20129;-74
2022/03/21 09:50:39;;;;;;;3.65;1.42;;;21.20;76.40;;;;;;5035022;28;20039;-74
2022/03/21 09:53:07;;;;;;;18.85;2.13;;;21.20;75.70;;;;;;5050974;28;20055;-73
2022/03/21 09:55:35;;;;;;;7.53;2.00;;;21.20;75.90;;;;;;5033528;28;20581;-74
2022/03/21 09:58:03;;;;;;;17.88;1.98;;;21.10;75.00;;;;;;5032845;28;20040;-74
2022/03/21 10:00:31;;;;;;;11.93;2.20;;;21.20;75.80;;;;;;5022201;28;20387;-75
2022/03/21 13:10:34;;;;;;;5.22;1.83;;;19.90;85.20;;;;;;5043889;28;20052;-73
2022/03/21 13:13:01;;;;;;;8.82;2.55;;;19.80;85.20;;;;;;5034902;28;20491;-72
2022/03/21 13:15:29;;;;;;;6.65;2.08;;;19.80;85.20;;;;;;5019010;28;20029;-73
2022/03/21 13:18:03;;;;;;;4.53;1.77;;;19.80;85.40;;;;;;5052744;28;20059;-72
2022/03/21 13:20:44;;;;;;;7.47;1.58;;;19.70;85.40;;;;;;5052758;28;20039;-72
2022/03/21 13:23:11;;;;;;;4.97;1.88;;;19.70;85.60;;;;;;5018724;28;20450;-72
2022/03/21 13:25:39;;;;;;;3.60;1.65;;;19.60;85.80;;;;;;5018505;28;20120;-73
2022/03/21 13:28:09;;;;;;;6.57;1.85;;;19.60;86.00;;;;;;5018618;28;20478;-72
2022/03/21 13:30:36;;;;;;;;;;;19.50;86.10;;;;;;5033773;28;20037;-73
2022/03/21 13:33:03;;;;;;;6.80;1.80;;;19.50;86.30;;;;;;5052001;28;19909;-73
2022/03/21 13:35:32;;;;;;;5.55;1.75;;;19.50;86.20;;;;;;5034823;28;20505;-72
2022/03/21 13:38:03;;;;;;;4.10;1.65;;;19.50;86.40;;;;;;5018519;28;20064;-72
2022/03/21 13:40:31;;;;;;;3.65;1.35;;;19.50;86.50;;;;;;5014648;28;20060;-72
2022/03/21 13:43:17;;;;;;;4.90;1.80;;;19.50;86.60;;;;;;5032228;28;20183;-72
2022/03/21 13:45:45;;;;;;;5.40;1.48;;;19.50;86.70;;;;;;5019240;28;20071;-72
2022/03/21 13:48:12;;;;;;;5.43;1.77;;;19.40;86.80;;;;;;5051698;28;20037;-72
2022/03/21 13:50:39;;;;;;;4.63;1.50;;;19.40;86.70;;;;;;5033978;28;20068;-72
2022/03/21 13:53:25;;;;;;;7.78;2.00;;;19.40;86.70;;;;;;5050724;28;20028;-72
2022/03/21 13:55:53;;;;;;;5.53;2.10;;;19.50;86.60;;;;;;5042624;28;20041;-72
2022/03/21 13:58:30;;;;;;;8.55;2.20;;;19.40;86.30;;;;;;5022334;28;20029;-72
2022/03/21 14:00:57;;;;;;;6.65;2.38;;;19.40;86.30;;;;;;5050282;28;20079;-72
2022/03/21 14:03:34;;;;;;;7.35;2.10;;;19.40;86.40;;;;;;5034370;28;20052;-72
2022/03/21 14:06:03;;;;;;;7.68;2.03;;;19.40;86.30;;;;;;5034328;28;20045;-72
2022/03/21 14:08:30;;;;;;;8.63;2.22;;;19.40;86.20;;;;;;5004078;28;20038;-72
2022/03/21 14:46:55;;;;;;;10.05;2.63;;;19.30;85.80;;;;;;5037159;28;20128;-73
2022/03/21 14:49:23;;;;;;;7.05;2.35;;;19.30;85.80;;;;;;5051045;28;20057;-73
2022/03/21 14:51:50;;;;;;;8.85;2.58;;;19.30;85.60;;;;;;5033395;28;20032;-73
2022/03/21 14:54:17;;;;;;;7.72;2.50;;;19.30;85.60;;;;;;5031716;28;20040;-73
2022/03/21 14:56:44;;;;;;;7.90;2.58;;;19.30;85.70;;;;;;5017141;28;20034;-73
2022/03/21 14:59:11;;;;;;;7.75;2.47;;;19.30;85.70;;;;;;5030947;28;20387;-73
2022/03/21 15:01:38;;;;;;;8.48;2.65;;;19.30;85.50;;;;;;5013017;28;20039;-73
2022/03/21 15:04:06;;;;;;;9.80;2.30;;;19.20;85.70;;;;;;5016327;28;20489;-73
2022/03/21 15:06:33;;;;;;;5.97;2.72;;;19.20;85.40;;;;;;5050489;28;20117;-73
2022/03/21 15:09:00;;;;;;;7.03;2.67;;;19.20;85.50;;;;;;5048330;28;20266;-72
2022/03/21 15:11:28;;;;;;;8.30;2.55;;;19.20;85.60;;;;;;5030513;28;20068;-73
2022/03/21 15:13:55;;;;;;;8.68;2.33;;;19.10;85.60;;;;;;5027505;28;20029;-73
2022/03/21 15:16:22;;;;;;;5.38;2.40;;;19.20;85.60;;;;;;5025347;28;20045;-73
2022/03/21 15:18:49;;;;;;;11.55;2.10;;;19.20;85.40;;;;;;5049697;28;20095;-73
2022/03/21 15:21:16;;;;;;;9.13;2.50;;;19.20;85.40;;;;;;5050469;28;20147;-73
2022/03/21 15:23:44;;;;;;;9.85;3.00;;;19.10;85.40;;;;;;5049857;28;20028;-73
2022/03/21 15:26:11;;;;;;;7.93;2.22;;;19.00;85.70;;;;;;5031977;28;20530;-73
2022/03/21 15:28:38;;;;;;;7.28;1.90;;;19.00;85.70;;;;;;5054445;28;20480;-73
2022/03/21 15:31:05;;;;;;;7.68;2.70;;;19.10;85.70;;;;;;5036969;28;20032;-72
2022/03/21 15:33:32;;;;;;;7.93;2.60;;;19.00;85.70;;;;;;5054583;28;20613;-73
2022/03/21 15:41:42;;;;;;;8.77;2.95;;;19.00;85.90;;;;;;5054766;28;20040;-73
2022/03/21 15:44:10;;;;;;;7.20;2.63;;;18.90;85.90;;;;;;5037594;28;20072;-73
2022/03/21 15:46:37;;;;;;;8.35;2.50;;;19.00;85.80;;;;;;5054388;28;20045;-73
2022/03/21 15:49:04;;;;;;;9.35;2.40;;;18.90;85.70;;;;;;5052911;28;20509;-73
2022/03/21 15:51:32;;;;;;;5.65;2.33;;;19.00;85.70;;;;;;5037063;28;20499;-73
2022/03/21 15:53:59;;;;;;;9.25;2.35;;;18.90;85.90;;;;;;5026730;28;20026;-73
2022/03/21 15:56:26;;;;;;;7.68;2.50;;;18.90;85.90;;;;;;5050977;28;20060;-72
2022/03/21 15:58:54;;;;;;;6.60;2.40;;;18.90;85.80;;;;;;5036660;28;20433;-73
2022/03/21 16:01:22;;;;;;;10.68;2.60;;;19.00;85.90;;;;;;5036589;28;20021;-72
2022/03/21 16:03:50;;;;;;;8.07;2.50;;;19.00;86.10;;;;;;5036039;28;20044;-73
2022/03/21 16:06:17;;;;;;;8.15;2.55;;;18.90;86.20;;;;;;5045610;23;20057;-62
2022/03/21 16:08:44;;;;;;;7.75;2.53;;;19.00;86.20;;;;;;5023222;28;20121;-62
2022/03/21 16:11:12;;;;;;;5.72;2.63;;;18.90;86.20;;;;;;5021416;28;20034;-62
2022/03/21 16:13:39;;;;;;;8.38;2.92;;;18.90;86.20;;;;;;5014876;28;20106;-62
2022/03/21 16:16:07;;;;;;;5.53;2.35;;;18.90;86.20;;;;;;5014159;28;20087;-63
2022/03/21 16:18:36;;;;;;;9.10;2.75;;;18.90;86.50;;;;;;5014091;28;20045;-62
2022/03/21 16:21:06;;;;;;;6.45;2.30;;;18.90;86.60;;;;;;5032506;28;20033;-62
2022/03/21 16:23:33;;;;;;;7.32;2.17;;;18.90;87.00;;;;;;5033882;28;20435;-62
2022/03/21 16:26:00;;;;;;;8.30;2.20;;;18.80;87.30;;;;;;5033891;28;20033;-62
2022/03/21 16:28:27;;;;;;;9.00;2.33;;;18.80;87.30;;;;;;5032588;28;20033;-62
2022/03/21 16:30:55;;;;;;;11.55;2.60;;;18.80;87.50;;;;;;5032278;28;20481;-63
2022/03/21 16:33:22;;;;;;;7.30;2.03;;;18.80;87.50;;;;;;5033407;28;20069;-62
2022/03/21 16:35:49;;;;;;;8.07;2.38;;;18.70;87.70;;;;;;5029459;28;20039;-62
2022/03/21 16:38:16;;;;;;;7.38;1.95;;;18.80;87.90;;;;;;5033052;28;20021;-63
2022/03/21 16:40:43;;;;;;;5.90;2.30;;;18.80;87.90;;;;;;5033607;28;20427;-62
2022/03/21 16:43:11;;;;;;;11.20;2.40;;;18.80;87.80;;;;;;5031823;28;20130;-62
2022/03/21 16:45:38;;;;;;;5.32;2.13;;;18.80;87.70;;;;;;5032209;28;20095;-62
2022/03/21 16:48:06;;;;;;;7.88;2.15;;;18.80;87.70;;;;;;5032765;28;20053;-62
2022/03/21 16:50:33;;;;;;;6.40;2.10;;;18.70;87.80;;;;;;5032112;28;20415;-63
2022/03/21 16:53:00;;;;;;;7.78;2.03;;;18.80;87.80;;;;;;5033138;28;20470;-62
2022/03/21 16:55:27;;;;;;;8.00;2.25;;;18.80;87.80;;;;;;5033566;28;20109;-62
2022/03/21 16:57:55;;;;;;;7.25;2.13;;;18.70;87.80;;;;;;5033206;28;20056;-63
2022/03/21 17:00:22;;;;;;;11.07;2.47;;;18.80;87.80;;;;;;5033270;28;20033;-62
2022/03/21 17:02:49;;;;;;;7.95;2.15;;;18.70;87.70;;;;;;5032481;28;20073;-63
2022/03/21 17:05:17;;;;;;;8.10;2.58;;;18.70;87.80;;;;;;5028184;28;20103;-62
2022/03/21 17:07:48;;;;;;;6.32;1.90;;;18.70;87.90;;;;;;5031061;28;20463;-62
2022/03/21 17:10:23;;;;;;;5.82;2.40;;;18.60;88.00;;;;;;5032536;28;20057;-62
2022/03/21 17:12:50;;;;;;;9.23;2.22;;;18.70;88.00;;;;;;5031195;28;20052;-62
2022/03/21 17:15:17;;;;;;;6.25;1.90;;;18.60;88.00;;;;;;5032801;28;20041;-63
2022/03/21 17:17:45;;;;;;;7.47;1.90;;;18.50;88.00;;;;;;5032975;28;20117;-62
2022/03/21 17:23:10;;;;;;;8.25;2.08;;;18.50;88.30;;;;;;5032854;28;20033;-62
2022/03/21 17:25:39;;;;;;;8.38;2.08;;;18.60;88.30;;;;;;5032568;28;20037;-63
2022/03/21 17:28:06;;;;;;;10.55;2.17;;;18.70;88.20;;;;;;5031935;28;20356;-63
2022/03/21 17:30:34;;;;;;;10.23;2.20;;;18.60;88.30;;;;;;5031341;28;20032;-62
2022/03/21 17:33:02;;;;;;;7.88;2.33;;;18.60;88.10;;;;;;5032118;28;20121;-63
2022/03/21 17:35:30;;;;;;;6.57;1.80;;;18.60;88.10;;;;;;5032246;28;20430;-63
2022/03/21 17:37:57;;;;;;;9.07;2.00;;;18.60;87.90;;;;;;5030490;28;20044;-62
2022/03/21 17:40:24;;;;;;;6.03;1.80;;;18.50;87.90;;;;;;5032695;28;20025;-62
2022/03/21 17:42:52;;;;;;;9.23;2.10;;;18.50;88.00;;;;;;5031807;28;20148;-62
2022/03/21 17:45:20;;;;;;;10.00;1.98;;;18.50;87.90;;;;;;5024131;28;20091;-62
2022/03/21 17:47:48;;;;;;;10.85;2.30;;;18.50;87.90;;;;;;5031358;28;20132;-62
2022/03/21 17:50:15;;;;;;;5.40;1.75;;;18.50;87.90;;;;;;5031621;28;20061;-62
2022/03/21 17:52:43;;;;;;;9.88;2.08;;;18.40;87.90;;;;;;5032313;28;20037;-62
2022/03/21 17:55:12;;;;;;;8.15;1.88;;;18.40;87.90;;;;;;5031262;28;20087;-63
2022/03/21 17:57:39;;;;;;;4.50;1.80;;;18.40;88.00;;;;;;5031285;28;20029;-63
2022/03/21 18:00:08;;;;;;;5.82;1.70;;;18.40;87.90;;;;;;5026928;28;20041;-62
2022/03/21 18:02:35;;;;;;;9.80;2.00;;;18.40;87.90;;;;;;5032446;28;20037;-62
2022/03/21 18:05:03;;;;;;;9.05;2.10;;;18.40;87.90;;;;;;5031676;28;20069;-62
2022/03/21 18:07:30;;;;;;;6.32;1.90;;;18.30;88.00;;;;;;5029868;28;20124;-63
2022/03/21 18:09:57;;;;;;;5.88;1.85;;;18.40;88.00;;;;;;5027813;28;20048;-62
2022/03/21 18:12:26;;;;;;;8.15;2.30;;;18.40;88.10;;;;;;5018854;28;20037;-62
2022/03/21 19:48:30;;;;;;;7.40;1.83;;;18.30;88.10;;;;;;5029423;28;20080;-63
2022/03/21 19:50:57;;;;;;;4.18;1.60;;;18.30;88.00;;;;;;5042082;28;20049;-64
2022/03/21 19:53:24;;;;;;;7.18;1.95;;;18.30;88.20;;;;;;5049967;28;20041;-64
2022/03/21 19:55:51;;;;;;;7.53;1.75;;;18.30;88.10;;;;;;5050054;28;20070;-64
2022/03/21 19:58:19;;;;;;;5.90;1.75;;;18.30;88.10;;;;;;5049391;28;20095;-64
2022/03/21 20:00:46;;;;;;;5.82;1.90;;;18.30;88.30;;;;;;5030625;28;20044;-64
2022/03/21 20:03:13;;;;;;;6.93;1.60;;;18.30;88.40;;;;;;5048339;28;20066;-64
2022/03/21 20:05:40;;;;;;;6.40;1.75;;;18.30;88.50;;;;;;5048966;28;20040;-64
2022/03/21 20:08:08;;;;;;;7.10;1.90;;;18.20;88.50;;;;;;5048838;28;20064;-64
2022/03/21 20:10:35;;;;;;;7.15;1.92;;;18.30;88.60;;;;;;5032877;28;20399;-64
2022/03/21 20:13:02;;;;;;;6.25;2.22;;;18.30;88.60;;;;;;5050985;28;20037;-64
2022/03/21 20:15:30;;;;;;;5.53;1.90;;;18.30;88.70;;;;;;5053184;28;20278;-64
2022/03/21 20:17:57;;;;;;;6.28;2.10;;;18.30;88.60;;;;;;5026891;28;20052;-64
2022/03/21 20:20:25;;;;;;;6.65;2.30;;;18.30;88.50;;;;;;5051762;28;20025;-64
2022/03/21 20:22:53;;;;;;;8.88;2.25;;;18.30;88.80;;;;;;5034476;28;20053;-64
2022/03/21 20:25:20;;;;;;;6.97;2.05;;;18.30;88.90;;;;;;5053247;28;20037;-64
2022/03/21 20:27:47;;;;;;;5.05;1.90;;;18.30;88.90;;;;;;5035059;28;20052;-63
2022/03/21 20:30:14;;;;;;;7.47;1.90;;;18.30;89.10;;;;;;5053090;28;20171;-64
2022/03/21 20:32:42;;;;;;;8.35;2.17;;;18.40;88.90;;;;;;5033464;28;20697;-64
2022/03/21 20:35:12;;;;;;;8.98;2.10;;;18.40;89.00;;;;;;5045218;28;20112;-64
2022/03/21 20:37:40;;;;;;;6.93;2.53;;;18.40;88.90;;;;;;5034134;28;20155;-64
2022/03/21 20:40:08;;;;;;;5.50;2.10;;;18.40;89.00;;;;;;5051953;28;20048;-64
2022/03/21 20:42:36;;;;;;;10.05;2.05;;;18.40;89.10;;;;;;5053074;28;20490;-64
2022/03/21 20:45:07;;;;;;;13.27;3.88;;;18.40;89.10;;;;;;5052917;28;20037;-64
2022/03/21 20:47:35;;;;;;;9.20;2.85;;;18.50;89.10;;;;;;5047781;28;20114;-64
2022/03/21 20:50:02;;;;;;;6.53;2.45;;;18.50;89.20;;;;;;5050203;28;20041;-64
2022/03/21 20:52:30;;;;;;;6.95;2.80;;;18.50;89.10;;;;;;5034666;28;20544;-63
2022/03/21 20:54:59;;;;;;;10.38;3.25;;;18.60;89.10;;;;;;5032802;28;20079;-64
2022/03/21 20:57:30;;;;;;;8.75;2.92;;;18.60;89.10;;;;;;5041567;28;20029;-64
2022/03/21 20:59:57;;;;;;;6.90;2.35;;;18.60;89.00;;;;;;5030165;28;20139;-64
2022/03/21 21:02:26;;;;;;;7.10;3.05;;;18.60;89.00;;;;;;5052877;28;20371;-64
2022/03/21 21:04:54;;;;;;;10.18;3.17;;;18.60;88.90;;;;;;5050810;28;20110;-63
2022/03/21 21:07:21;;;;;;;7.90;2.40;;;18.70;88.80;;;;;;5026249;28;20115;-64
2022/03/21 21:10:49;;;;;;;6.85;2.45;;;18.70;88.80;;;;;;5051516;28;20525;-64
2022/03/21 21:12:36;;;;;;;11.02;2.70;;;18.70;88.80;;;;;;5039160;28;20033;-64
2022/03/21 21:15:04;;;;;;;9.52;2.90;;;18.70;88.60;;;;;;5048602;28;20166;-64
2022/03/21 21:17:32;;;;;;;9.57;2.75;;;18.80;88.40;;;;;;5051567;28;20033;-64
2022/03/21 21:19:59;;;;;;;6.53;2.80;;;18.70;88.10;;;;;;5051936;28;20033;-64
2022/03/21 21:22:27;;;;;;;9.10;2.50;;;18.80;88.00;;;;;;5033921;28;20505;-64
2022/03/21 21:24:55;;;;;;;8.10;2.80;;;18.80;88.00;;;;;;5049056;28;20044;-64
2022/03/21 21:27:22;;;;;;;8.18;3.03;;;18.80;87.90;;;;;;5048495;28;20049;-65
2022/03/21 21:29:49;;;;;;;9.02;2.80;;;18.80;87.80;;;;;;5052765;28;20052;-64
2022/03/21 21:32:17;;;;;;;11.45;3.20;;;18.90;87.90;;;;;;5058640;28;20033;-64
2022/03/21 21:34:44;;;;;;;9.00;2.80;;;18.90;87.80;;;;;;5050605;28;20033;-63
2022/03/21 21:37:11;;;;;;;10.70;3.20;;;18.90;87.70;;;;;;5052253;28;20102;-64
2022/03/21 21:39:38;;;;;;;4.70;2.53;;;18.90;87.70;;;;;;5051091;28;20498;-63
2022/03/21 21:42:05;;;;;;;10.23;2.90;;;19.00;87.80;;;;;;5037162;28;20037;-60
2022/03/21 21:44:33;;;;;;;8.05;2.78;;;19.00;87.60;;;;;;5042982;28;20384;-60
2022/03/21 21:47:00;;;;;;;8.73;2.63;;;19.10;87.70;;;;;;5031869;28;20072;-61
2022/03/21 21:49:30;;;;;;;8.52;3.00;;;19.10;87.60;;;;;;5032153;28;20112;-59
2022/03/21 21:51:57;;;;;;;9.73;3.17;;;19.10;87.60;;;;;;5031857;28;20045;-59
2022/03/21 21:54:24;;;;;;;9.02;2.88;;;19.20;87.30;;;;;;5032017;28;20395;-60
2022/03/21 21:56:51;;;;;;;10.98;2.63;;;19.20;87.40;;;;;;5031916;28;20377;-60
2022/03/21 21:59:18;;;;;;;7.35;2.45;;;19.30;87.40;;;;;;5032008;28;20041;-60
2022/03/21 22:01:47;;;;;;;10.38;2.75;;;19.30;87.30;;;;;;5031980;28;20484;-60
2022/03/21 22:04:15;;;;;;;9.02;2.78;;;19.40;87.10;;;;;;5014833;28;20369;-60
2022/03/21 22:06:42;;;;;;;6.68;2.58;;;19.40;86.50;;;;;;5013888;28;20045;-60
2022/03/21 22:09:09;;;;;;;8.82;2.70;;;19.50;86.40;;;;;;5049448;28;20041;-60
2022/03/21 22:11:36;;;;;;;9.73;2.70;;;19.50;86.40;;;;;;5052220;28;20112;-60
2022/03/21 22:14:05;;;;;;;7.25;2.63;;;19.60;86.50;;;;;;5051443;28;20041;-60
2022/03/21 22:16:32;;;;;;;9.27;2.67;;;19.70;85.90;;;;;;5051948;28;20030;-60
2022/03/21 22:18:59;;;;;;;8.10;2.50;;;19.70;86.10;;;;;;5051542;28;20036;-60
2022/03/21 22:21:27;;;;;;;7.47;2.45;;;19.70;86.10;;;;;;5051445;28;20049;-60
2022/03/21 22:23:55;;;;;;;8.63;2.45;;;19.80;86.00;;;;;;5051524;28;20037;-60
